createdAt,value
2018-07-03T00:02:03.961Z,19.70
2018-07-03T00:04:38.706Z,19.60
2018-07-03T00:07:13.883Z,19.60
2018-07-03T00:09:48.970Z,19.50
2018-07-03T00:12:23.844Z,19.50
2018-07-03T00:14:58.695Z,19.40
2018-07-03T00:17:34.254Z,19.40
2018-07-03T00:20:09.502Z,19.40
2018-07-03T00:22:44.712Z,19.30
2018-07-03T00:25:20.693Z,19.30
2018-07-03T00:27:55.391Z,19.30
2018-07-03T00:30:30.154Z,19.20
2018-07-03T00:33:04.955Z,19.10
2018-07-03T00:38:14.533Z,19.00
2018-07-03T00:40:49.452Z,19.00
2018-07-03T00:43:24.527Z,19.00
2018-07-03T00:45:59.778Z,19.00
2018-07-03T00:48:34.684Z,18.90
2018-07-03T00:53:44.327Z,18.90
2018-07-03T00:56:18.995Z,18.90
2018-07-03T00:58:53.911Z,18.80
2018-07-03T01:01:29.020Z,18.80
2018-07-03T01:04:04.711Z,18.80
2018-07-03T01:06:39.574Z,18.70
2018-07-03T01:09:14.610Z,18.70
2018-07-03T01:11:49.650Z,18.70
2018-07-03T01:14:24.550Z,18.50
2018-07-03T01:16:59.705Z,18.40
2018-07-03T01:19:34.930Z,18.40
2018-07-03T01:22:09.929Z,18.30
2018-07-03T01:24:44.902Z,18.20
2018-07-03T01:29:54.749Z,18.10
2018-07-03T01:32:29.827Z,18.00
2018-07-03T01:35:04.874Z,17.90
2018-07-03T01:37:39.745Z,17.80
2018-07-03T01:40:14.736Z,17.80
2018-07-03T01:42:49.522Z,17.70
2018-07-03T01:45:24.473Z,17.70
2018-07-03T01:47:59.408Z,17.70
2018-07-03T01:50:34.421Z,17.70
2018-07-03T01:53:09.348Z,17.60
2018-07-03T01:55:44.164Z,17.50
2018-07-03T01:58:19.417Z,17.50
2018-07-03T02:00:54.371Z,17.40
2018-07-03T02:03:29.242Z,17.40
2018-07-03T02:06:04.115Z,17.40
2018-07-03T02:08:38.820Z,17.30
2018-07-03T02:11:13.718Z,17.30
2018-07-03T02:13:48.607Z,17.20
2018-07-03T02:16:23.515Z,17.20
2018-07-03T02:18:58.558Z,17.10
2018-07-03T02:21:33.582Z,17.10
2018-07-03T02:24:08.866Z,17.00
2018-07-03T02:26:44.303Z,17.00
2018-07-03T02:29:19.519Z,16.90
2018-07-03T02:31:54.998Z,16.90
2018-07-03T02:34:29.820Z,16.90
2018-07-03T02:37:05.097Z,16.90
2018-07-03T02:39:40.573Z,16.80
2018-07-03T02:42:15.509Z,16.80
2018-07-03T02:47:25.354Z,16.70
2018-07-03T02:50:00.428Z,16.70
2018-07-03T02:52:35.376Z,16.60
2018-07-03T02:55:10.268Z,16.60
2018-07-03T02:57:45.147Z,16.50
2018-07-03T03:00:20.090Z,16.50
2018-07-03T03:02:54.945Z,16.40
2018-07-03T03:05:30.184Z,16.50
2018-07-03T03:08:05.358Z,16.40
2018-07-03T03:10:40.430Z,16.40
2018-07-03T03:13:16.187Z,16.30
2018-07-03T03:15:45.791Z,16.20
2018-07-03T03:20:55.254Z,16.20
2018-07-03T03:23:30.476Z,16.20
2018-07-03T03:26:05.641Z,16.20
2018-07-03T03:28:40.594Z,16.20
2018-07-03T03:31:15.531Z,16.20
2018-07-03T03:33:50.676Z,16.20
2018-07-03T03:36:25.947Z,16.20
2018-07-03T03:39:00.694Z,16.20
2018-07-03T03:41:35.557Z,16.10
2018-07-03T03:44:11.064Z,16.10
2018-07-03T03:46:45.922Z,16.10
2018-07-03T03:49:20.641Z,16.10
2018-07-03T03:51:55.901Z,16.10
2018-07-03T03:57:05.933Z,16.00
2018-07-03T03:59:43.883Z,16.00
2018-07-03T04:02:18.787Z,16.10
2018-07-03T04:04:53.699Z,16.20
2018-07-03T04:07:28.558Z,16.10
2018-07-03T04:10:03.538Z,16.10
2018-07-03T04:12:38.496Z,16.10
2018-07-03T04:15:13.354Z,16.10
2018-07-03T04:17:48.369Z,16.10
2018-07-03T04:20:23.435Z,16.20
2018-07-03T04:22:58.246Z,16.20
2018-07-03T04:25:33.209Z,16.20
2018-07-03T04:28:08.436Z,16.20
2018-07-03T04:30:44.040Z,16.30
2018-07-03T04:33:18.877Z,16.30
2018-07-03T04:35:54.384Z,16.30
2018-07-03T04:38:29.560Z,16.40
2018-07-03T04:41:04.654Z,16.40
2018-07-03T04:43:39.826Z,16.50
2018-07-03T04:46:14.630Z,16.50
2018-07-03T04:48:49.447Z,16.50
2018-07-03T04:51:24.423Z,16.50
2018-07-03T04:53:59.649Z,16.50
2018-07-03T04:56:34.614Z,16.60
2018-07-03T04:59:09.649Z,16.60
2018-07-03T05:01:44.501Z,16.60
2018-07-03T05:04:21.318Z,16.60
2018-07-03T05:06:56.434Z,16.70
2018-07-03T05:09:31.689Z,16.70
2018-07-03T05:12:06.958Z,16.80
2018-07-03T05:14:41.680Z,16.80
2018-07-03T05:17:16.750Z,16.90
2018-07-03T05:19:51.542Z,16.90
2018-07-03T05:22:26.878Z,17.00
2018-07-03T05:25:02.087Z,17.10
2018-07-03T05:27:37.483Z,17.10
2018-07-03T05:30:12.621Z,17.20
2018-07-03T05:32:47.648Z,17.30
2018-07-03T05:35:22.636Z,17.40
2018-07-03T05:37:57.654Z,17.40
2018-07-03T05:40:32.850Z,17.50
2018-07-03T05:43:08.467Z,17.60
2018-07-03T05:45:43.737Z,17.70
2018-07-03T05:48:18.766Z,17.80
2018-07-03T05:50:53.570Z,17.90
2018-07-03T05:53:28.465Z,17.90
2018-07-03T05:56:03.446Z,18.00
2018-07-03T06:01:13.733Z,18.00
2018-07-03T06:03:49.519Z,18.10
2018-07-03T06:06:25.775Z,18.10
2018-07-03T06:08:55.146Z,18.20
2018-07-03T06:11:30.387Z,18.30
2018-07-03T06:13:59.921Z,18.40
2018-07-03T06:16:35.383Z,18.40
2018-07-03T06:19:10.683Z,18.40
2018-07-03T06:21:45.639Z,18.50
2018-07-03T06:26:49.841Z,18.70
2018-07-03T06:29:19.310Z,18.70
2018-07-03T06:31:49.042Z,18.80
2018-07-03T06:34:18.346Z,18.80
2018-07-03T06:36:53.554Z,18.80
2018-07-03T06:39:28.495Z,18.80
2018-07-03T06:42:03.473Z,18.90
2018-07-03T06:44:32.927Z,18.90
2018-07-03T06:47:02.226Z,18.90
2018-07-03T06:49:37.193Z,18.90
2018-07-03T06:52:12.291Z,19.10
2018-07-03T06:54:47.020Z,19.10
2018-07-03T06:57:22.072Z,19.10
2018-07-03T06:59:57.076Z,19.20
2018-07-03T07:02:32.051Z,19.30
2018-07-03T07:05:07.234Z,19.30
2018-07-03T07:10:16.837Z,19.40
2018-07-03T07:12:51.687Z,19.40
2018-07-03T07:15:26.695Z,19.60
2018-07-03T07:18:01.710Z,19.70
2018-07-03T07:20:36.372Z,19.70
2018-07-03T07:28:20.533Z,19.90
2018-07-03T07:30:55.499Z,19.90
2018-07-03T07:33:30.443Z,20.00
2018-07-03T07:38:40.187Z,20.10
2018-07-03T07:41:15.137Z,20.10
2018-07-03T07:48:59.798Z,20.30
2018-07-03T07:51:35.427Z,20.40
2018-07-03T07:54:10.459Z,20.50
2018-07-03T07:56:45.851Z,20.70
2018-07-03T07:59:20.609Z,20.90
2018-07-03T08:01:55.560Z,21.00
2018-07-03T08:04:30.416Z,21.10
2018-07-03T08:07:05.773Z,21.20
2018-07-03T08:09:40.935Z,21.30
2018-07-03T08:12:16.035Z,21.50
2018-07-03T08:14:51.045Z,21.50
2018-07-03T08:17:26.619Z,21.70
2018-07-03T08:19:56.621Z,21.80
2018-07-03T08:22:31.493Z,21.90
2018-07-03T08:25:06.364Z,22.00
2018-07-03T08:27:39.725Z,22.20
2018-07-03T08:30:14.872Z,22.20
2018-07-03T08:32:50.189Z,22.40
2018-07-03T08:35:25.350Z,22.50
2018-07-03T08:40:34.894Z,22.80
2018-07-03T08:43:10.127Z,22.90
2018-07-03T08:45:44.943Z,23.10
2018-07-03T08:48:19.941Z,23.20
2018-07-03T08:50:54.956Z,23.30
2018-07-03T08:53:29.917Z,23.40
2018-07-03T08:56:04.948Z,23.50
2018-07-03T08:58:40.019Z,23.60
2018-07-03T09:01:14.923Z,23.60
2018-07-03T09:03:50.074Z,23.70
2018-07-03T09:06:25.805Z,23.70
2018-07-03T09:09:00.586Z,23.70
2018-07-03T09:11:35.790Z,23.70
2018-07-03T09:14:05.538Z,23.70
2018-07-03T09:16:40.352Z,23.80
2018-07-03T09:19:15.598Z,23.70
2018-07-03T09:21:51.118Z,23.60
2018-07-03T09:24:26.210Z,23.60
2018-07-03T09:27:01.010Z,23.50
2018-07-03T09:29:36.043Z,23.50
2018-07-03T09:32:10.928Z,23.50
2018-07-03T09:34:40.428Z,23.60
2018-07-03T09:37:15.243Z,23.70
2018-07-03T09:39:50.209Z,23.80
2018-07-03T09:42:25.284Z,23.90
2018-07-03T09:45:00.609Z,24.10
2018-07-03T09:47:35.505Z,24.20
2018-07-03T09:50:10.601Z,24.30
2018-07-03T09:52:45.464Z,24.30
2018-07-03T09:55:20.390Z,24.50
2018-07-03T09:57:55.094Z,24.60
2018-07-03T10:00:35.506Z,24.70
2018-07-03T10:03:10.683Z,24.70
2018-07-03T10:05:45.612Z,24.80
2018-07-03T10:08:20.756Z,25.00
2018-07-03T10:10:55.803Z,25.10
2018-07-03T10:13:30.887Z,25.10
2018-07-03T10:16:05.942Z,25.10
2018-07-03T10:18:40.841Z,25.20
2018-07-03T10:21:15.832Z,25.20
2018-07-03T10:23:50.695Z,25.20
2018-07-03T10:26:20.091Z,25.20
2018-07-03T10:28:54.770Z,25.10
2018-07-03T10:31:29.984Z,25.20
2018-07-03T10:34:05.330Z,25.20
2018-07-03T10:36:40.297Z,25.40
2018-07-03T10:44:24.246Z,25.40
2018-07-03T10:46:59.295Z,25.40
2018-07-03T10:49:34.432Z,25.40
2018-07-03T10:52:09.307Z,25.50
2018-07-03T10:54:44.271Z,25.50
2018-07-03T10:57:19.141Z,25.40
2018-07-03T10:59:54.097Z,25.40
2018-07-03T11:02:28.840Z,25.50
2018-07-03T11:05:03.774Z,25.60
2018-07-03T11:07:38.705Z,25.80
2018-07-03T11:10:13.668Z,25.80
2018-07-03T11:12:48.681Z,26.00
2018-07-03T11:17:58.877Z,26.00
2018-07-03T11:20:33.946Z,26.00
2018-07-03T11:23:08.883Z,26.10
2018-07-03T11:25:43.816Z,26.10
2018-07-03T11:28:18.767Z,26.10
2018-07-03T11:30:54.047Z,26.10
2018-07-03T11:33:28.858Z,26.20
2018-07-03T11:36:04.080Z,26.20
2018-07-03T11:38:38.752Z,26.20
2018-07-03T11:41:14.029Z,26.20
2018-07-03T11:43:51.177Z,26.10
2018-07-03T11:46:27.936Z,26.20
2018-07-03T11:49:04.692Z,26.30
2018-07-03T11:51:44.323Z,26.40
2018-07-03T11:54:19.515Z,26.40
2018-07-03T11:59:30.863Z,26.50
2018-07-03T12:02:01.096Z,26.60
2018-07-03T12:04:30.687Z,26.70
2018-07-03T12:07:00.587Z,26.70
2018-07-03T12:09:30.226Z,26.60
2018-07-03T12:11:59.690Z,26.60
2018-07-03T12:14:29.425Z,26.60
2018-07-03T12:16:58.759Z,26.70
2018-07-03T12:19:28.898Z,26.80
2018-07-03T12:21:58.839Z,26.90
2018-07-03T12:24:29.022Z,27.00
2018-07-03T12:26:58.304Z,26.90
2018-07-03T12:29:27.602Z,26.80
2018-07-03T12:31:57.189Z,26.80
2018-07-03T12:36:55.743Z,27.00
2018-07-03T12:39:25.284Z,27.00
2018-07-03T12:41:54.562Z,27.00
2018-07-03T12:44:23.999Z,27.00
2018-07-03T12:46:53.484Z,27.00
2018-07-03T12:49:22.614Z,27.00
2018-07-03T12:51:52.631Z,27.10
2018-07-03T12:54:21.840Z,27.20
2018-07-03T12:56:51.464Z,27.20
2018-07-03T12:59:20.912Z,27.20
2018-07-03T13:01:50.426Z,27.50
2018-07-03T13:04:19.832Z,27.70
2018-07-03T13:06:49.364Z,27.90
2018-07-03T13:09:24.528Z,27.90
2018-07-03T13:11:59.596Z,28.00
2018-07-03T13:14:34.623Z,28.10
2018-07-03T13:17:05.561Z,28.20
2018-07-03T13:19:35.154Z,28.10
2018-07-03T13:22:04.349Z,28.10
2018-07-03T13:24:33.790Z,28.10
2018-07-03T13:27:08.802Z,28.00
2018-07-03T13:29:38.389Z,28.10
2018-07-03T13:32:07.695Z,28.20
2018-07-03T13:34:37.329Z,28.30
2018-07-03T13:37:07.188Z,28.40
2018-07-03T13:39:37.015Z,28.30
2018-07-03T13:42:06.494Z,28.40
2018-07-03T13:44:36.391Z,28.40
2018-07-03T13:47:06.181Z,28.30
2018-07-03T13:49:41.014Z,28.20
2018-07-03T13:52:15.895Z,28.30
2018-07-03T13:54:50.844Z,28.40
2018-07-03T13:57:25.832Z,28.60
2018-07-03T14:00:00.699Z,28.70
2018-07-03T14:02:36.084Z,28.80
2018-07-03T14:05:10.974Z,28.90
2018-07-03T14:10:20.803Z,29.30
2018-07-03T14:12:55.735Z,29.50
2018-07-03T14:15:30.810Z,29.70
2018-07-03T14:18:05.615Z,29.70
2018-07-03T14:20:40.851Z,29.60
2018-07-03T14:23:15.667Z,29.60
2018-07-03T14:25:50.930Z,29.60
2018-07-03T14:28:26.120Z,29.90
2018-07-03T14:31:01.176Z,29.90
2018-07-03T14:33:36.203Z,30.00
2018-07-03T14:36:11.895Z,30.00
2018-07-03T14:38:46.991Z,29.90
2018-07-03T14:41:21.810Z,30.00
2018-07-03T14:43:57.054Z,30.10
2018-07-03T14:46:32.270Z,30.10
2018-07-03T14:49:07.397Z,30.00
2018-07-03T14:51:42.566Z,29.90
2018-07-03T14:54:18.435Z,30.00
2018-07-03T14:56:53.147Z,30.10
2018-07-03T14:59:27.969Z,30.20
2018-07-03T15:02:02.805Z,30.30
2018-07-03T15:07:13.789Z,30.40
2018-07-03T15:09:48.934Z,30.50
2018-07-03T15:12:24.082Z,30.50
2018-07-03T15:17:34.127Z,30.70
2018-07-03T15:20:08.972Z,30.70
2018-07-03T15:25:18.519Z,30.90
2018-07-03T15:27:53.774Z,31.10
2018-07-03T15:30:29.137Z,31.30
2018-07-03T15:33:03.906Z,31.30
2018-07-03T15:35:38.792Z,31.50
2018-07-03T15:38:13.822Z,31.60
2018-07-03T15:40:49.248Z,31.70
2018-07-03T15:43:24.330Z,31.90
2018-07-03T15:45:53.800Z,32.10
2018-07-03T15:48:29.656Z,32.40
2018-07-03T15:51:04.937Z,32.80
2018-07-03T15:53:40.336Z,33.10
2018-07-03T15:56:15.997Z,33.20
2018-07-03T15:58:51.143Z,33.30
2018-07-03T16:04:13.064Z,32.90
2018-07-03T16:07:56.683Z,32.80
2018-07-03T16:10:32.141Z,32.80
2018-07-03T16:13:07.481Z,32.60
2018-07-03T16:15:42.722Z,32.40
2018-07-03T16:18:26.797Z,32.20
2018-07-03T16:21:01.829Z,32.10
2018-07-03T16:23:37.799Z,32.00
2018-07-03T16:26:13.297Z,31.80
2018-07-03T16:28:49.061Z,31.70
2018-07-03T16:31:25.649Z,31.60
2018-07-03T16:34:01.765Z,31.60
2018-07-03T16:36:36.779Z,31.60
2018-07-03T16:39:12.978Z,31.50
2018-07-03T16:41:48.215Z,31.40
2018-07-03T16:44:23.456Z,31.40
2018-07-03T16:46:58.765Z,31.40
2018-07-03T16:49:33.632Z,31.30
2018-07-03T16:52:09.429Z,31.30
2018-07-03T16:54:44.313Z,31.40
2018-07-03T16:57:20.092Z,31.40
2018-07-03T16:59:54.786Z,31.50
2018-07-03T17:02:29.752Z,31.60
2018-07-03T17:05:04.699Z,31.60
2018-07-03T17:07:46.784Z,31.50
2018-07-03T17:10:21.677Z,31.50
2018-07-03T17:12:57.251Z,31.50
2018-07-03T17:15:38.958Z,31.40
2018-07-03T17:18:13.920Z,31.40
2018-07-03T17:20:49.070Z,31.40
2018-07-03T17:23:23.957Z,31.20
2018-07-03T17:25:59.099Z,31.20
2018-07-03T17:28:34.917Z,31.10
2018-07-03T17:31:10.048Z,31.10
2018-07-03T17:33:44.994Z,31.10
2018-07-03T17:36:19.964Z,30.90
2018-07-03T17:38:55.252Z,30.90
2018-07-03T17:42:43.918Z,30.80
2018-07-03T17:46:22.166Z,30.70
2018-07-03T17:48:57.451Z,30.70
2018-07-03T17:51:26.771Z,30.80
2018-07-03T17:54:01.557Z,30.80
2018-07-03T17:56:36.515Z,30.70
2018-07-03T17:59:11.712Z,30.60
2018-07-03T18:01:47.071Z,30.50
2018-07-03T18:04:22.028Z,30.40
2018-07-03T18:06:57.153Z,30.30
2018-07-03T18:09:32.580Z,30.20
2018-07-03T18:12:07.613Z,30.00
2018-07-03T18:14:42.548Z,30.00
2018-07-03T18:17:17.736Z,29.90
2018-07-03T18:19:52.758Z,29.90
2018-07-03T18:22:27.667Z,29.90
2018-07-03T18:25:03.137Z,29.80
2018-07-03T18:27:38.378Z,29.70
2018-07-03T18:30:13.830Z,29.60
2018-07-03T18:32:48.829Z,29.50
2018-07-03T18:35:23.823Z,29.40
2018-07-03T18:37:58.719Z,29.30
2018-07-03T18:40:33.946Z,29.20
2018-07-03T18:43:09.105Z,29.00
2018-07-03T18:45:44.332Z,28.90
2018-07-03T18:48:19.904Z,28.70
2018-07-03T18:50:54.944Z,28.50
2018-07-03T18:53:24.177Z,28.30
2018-07-03T18:55:54.007Z,28.20
2018-07-03T19:00:52.713Z,27.90
2018-07-03T19:03:28.486Z,27.80
2018-07-03T19:06:03.867Z,27.70
2018-07-03T19:08:39.046Z,27.60
2018-07-03T19:11:14.741Z,27.50
2018-07-03T19:13:50.212Z,27.50
2018-07-03T19:16:25.159Z,27.40
2018-07-03T19:19:00.196Z,27.30
2018-07-03T19:21:35.015Z,27.20
2018-07-03T19:24:10.007Z,27.10
2018-07-03T19:26:44.972Z,27.00
2018-07-03T19:29:20.277Z,26.90
2018-07-03T19:31:56.136Z,26.80
2018-07-03T19:34:31.877Z,26.60
2018-07-03T19:37:07.387Z,26.60
2018-07-03T19:39:42.748Z,26.50
2018-07-03T19:42:18.129Z,26.50
2018-07-03T19:44:53.599Z,26.40
2018-07-03T19:50:03.863Z,26.20
2018-07-03T19:52:39.094Z,26.10
2018-07-03T19:55:14.224Z,26.10
2018-07-03T19:57:49.751Z,26.00
2018-07-03T20:00:24.980Z,26.00
2018-07-03T20:03:00.217Z,25.90
2018-07-03T20:05:36.182Z,25.80
2018-07-03T20:08:11.805Z,25.60
2018-07-03T20:10:47.477Z,25.50
2018-07-03T20:13:22.422Z,25.40
2018-07-03T20:15:57.639Z,25.40
2018-07-03T20:18:39.410Z,25.30
2018-07-03T20:21:14.752Z,25.30
2018-07-03T20:23:50.778Z,25.20
2018-07-03T20:26:28.002Z,25.20
2018-07-03T20:29:03.075Z,25.20
2018-07-03T20:31:39.045Z,25.10
2018-07-03T20:34:17.549Z,25.10
2018-07-03T20:36:57.060Z,25.10
2018-07-03T20:39:32.523Z,25.10
2018-07-03T20:42:09.201Z,25.00
2018-07-03T20:44:45.309Z,25.00
2018-07-03T20:47:20.384Z,25.00
2018-07-03T20:49:58.561Z,24.90
2018-07-03T20:55:09.853Z,24.70
2018-07-03T20:57:46.160Z,24.60
2018-07-03T21:02:56.320Z,24.40
2018-07-03T21:05:32.509Z,24.30
2018-07-03T21:08:09.760Z,24.30
2018-07-03T21:10:45.076Z,24.20
2018-07-03T21:13:21.577Z,24.10
2018-07-03T21:15:56.763Z,24.00
2018-07-03T21:18:32.824Z,24.00
2018-07-03T21:23:52.516Z,23.80
2018-07-03T21:26:27.869Z,23.80
2018-07-03T21:29:04.124Z,23.70
2018-07-03T21:31:40.300Z,23.70
2018-07-03T21:34:15.879Z,23.60
2018-07-03T21:36:53.074Z,23.60
2018-07-03T21:39:28.296Z,23.60
2018-07-03T21:42:03.384Z,23.60
2018-07-03T21:44:42.525Z,23.50
2018-07-03T21:47:21.082Z,23.50
2018-07-03T21:49:55.915Z,23.50
2018-07-03T21:52:35.248Z,23.40
2018-07-03T21:55:13.336Z,23.40
2018-07-03T21:57:48.485Z,23.40
2018-07-03T22:00:38.713Z,23.30
2018-07-03T22:03:15.101Z,23.30
2018-07-03T22:05:50.264Z,23.20
2018-07-03T22:08:24.985Z,23.30
2018-07-03T22:11:00.059Z,23.30
2018-07-03T22:13:34.920Z,23.30
2018-07-03T22:16:09.954Z,23.40
2018-07-03T22:18:44.827Z,23.40
2018-07-03T22:21:19.768Z,23.40
2018-07-03T22:23:54.870Z,23.40
2018-07-03T22:26:32.167Z,23.30
2018-07-03T22:29:07.120Z,23.30
2018-07-03T22:31:42.054Z,23.30
2018-07-03T22:34:19.137Z,23.20
2018-07-03T22:36:54.363Z,23.20
2018-07-03T22:39:30.444Z,23.20
2018-07-03T22:42:06.138Z,23.10
2018-07-03T22:44:41.004Z,23.10
2018-07-03T22:47:15.949Z,23.00
2018-07-03T22:49:50.656Z,23.00
2018-07-03T22:52:25.634Z,22.90
2018-07-03T22:55:00.432Z,22.90
2018-07-03T22:57:35.528Z,22.90
2018-07-03T23:00:10.440Z,22.80
2018-07-03T23:02:45.373Z,22.80
2018-07-03T23:05:20.401Z,22.80
2018-07-03T23:07:55.317Z,22.80
2018-07-03T23:10:30.229Z,22.90
2018-07-03T23:13:05.151Z,22.90
2018-07-03T23:15:34.313Z,22.90
2018-07-03T23:18:09.210Z,22.80
2018-07-03T23:20:44.550Z,22.80
2018-07-03T23:23:19.592Z,22.80
2018-07-03T23:25:54.867Z,22.80
2018-07-03T23:28:29.639Z,22.80
2018-07-03T23:31:04.535Z,22.70
2018-07-03T23:33:39.417Z,22.70
2018-07-03T23:38:48.817Z,22.70
2018-07-03T23:41:23.811Z,22.60
2018-07-03T23:43:58.752Z,22.60
2018-07-03T23:46:43.592Z,22.60
2018-07-03T23:49:29.854Z,22.60
2018-07-03T23:52:16.091Z,22.50
2018-07-03T23:55:02.204Z,22.50
2018-07-03T23:57:48.421Z,22.50
